createdAt,value
2019-01-30T00:02:40.004Z,8.72
2019-01-30T00:07:37.675Z,8.93
2019-01-30T00:12:46.153Z,8.48
2019-01-30T00:17:54.656Z,8.36
2019-01-30T00:23:03.706Z,8.35
2019-01-30T00:28:11.897Z,8.48
2019-01-30T00:33:19.948Z,8.16
2019-01-30T00:38:29.913Z,8.44
2019-01-30T00:43:37.647Z,8.40
2019-01-30T00:48:46.336Z,8.74
2019-01-30T00:53:54.037Z,8.99
2019-01-30T00:59:01.819Z,8.87
2019-01-30T01:04:09.673Z,9.29
2019-01-30T01:09:17.392Z,8.99
2019-01-30T01:14:26.153Z,9.30
2019-01-30T01:19:33.761Z,8.68
2019-01-30T01:24:42.476Z,9.13
2019-01-30T01:29:50.165Z,9.40
2019-01-30T01:34:58.979Z,9.84
2019-01-30T01:40:06.661Z,9.93
2019-01-30T01:45:14.362Z,9.79
2019-01-30T01:50:22.131Z,10.12
2019-01-30T01:55:29.742Z,9.92
2019-01-30T02:00:37.501Z,10.63
2019-01-30T02:05:45.299Z,10.61
2019-01-30T02:10:54.426Z,10.24
2019-01-30T02:16:02.042Z,10.87
2019-01-30T02:21:09.909Z,16.25
2019-01-30T02:26:17.513Z,10.80
2019-01-30T02:31:25.109Z,10.75
2019-01-30T02:36:32.977Z,10.93
2019-01-30T02:41:40.601Z,10.51
2019-01-30T02:46:48.506Z,11.03
2019-01-30T02:51:56.503Z,10.69
2019-01-30T02:57:04.242Z,10.51
2019-01-30T03:02:11.874Z,9.72
2019-01-30T03:07:19.711Z,10.00
2019-01-30T03:12:27.404Z,10.04
2019-01-30T03:17:35.088Z,10.06
2019-01-30T03:22:42.840Z,10.09
2019-01-30T03:27:50.536Z,10.15
2019-01-30T03:32:58.186Z,9.67
2019-01-30T03:38:06.057Z,10.05
2019-01-30T03:43:13.677Z,9.39
2019-01-30T03:48:21.421Z,9.38
2019-01-30T03:53:29.141Z,9.49
2019-01-30T03:58:37.329Z,9.30
2019-01-30T04:03:45.201Z,9.35
2019-01-30T04:08:52.848Z,9.18
2019-01-30T04:14:01.581Z,9.18
2019-01-30T04:19:09.252Z,13.29
2019-01-30T04:24:16.986Z,8.79
2019-01-30T04:29:26.914Z,8.60
2019-01-30T04:34:34.612Z,9.00
2019-01-30T04:39:42.222Z,9.10
2019-01-30T04:44:49.922Z,13.96
2019-01-30T04:49:57.522Z,9.58
2019-01-30T04:55:07.501Z,9.19
2019-01-30T05:00:15.274Z,9.30
2019-01-30T05:05:26.005Z,9.74
2019-01-30T05:10:23.618Z,9.57
2019-01-30T05:15:31.203Z,9.05
2019-01-30T05:20:38.810Z,9.25
2019-01-30T05:25:46.543Z,9.12
2019-01-30T05:30:54.333Z,9.11
2019-01-30T05:36:03.183Z,9.17
2019-01-30T05:41:10.921Z,9.24
2019-01-30T05:46:18.844Z,9.14
2019-01-30T05:51:28.697Z,8.78
2019-01-30T05:56:36.580Z,8.71
2019-01-30T06:01:44.449Z,9.00
2019-01-30T06:06:52.232Z,8.77
2019-01-30T06:11:59.941Z,8.78
2019-01-30T06:17:09.718Z,8.96
2019-01-30T06:22:14.689Z,8.18
2019-01-30T06:27:22.352Z,8.51
2019-01-30T06:32:29.981Z,8.51
2019-01-30T06:37:37.757Z,8.52
2019-01-30T06:42:45.417Z,12.13
2019-01-30T06:47:53.125Z,8.50
2019-01-30T06:53:00.780Z,8.02
2019-01-30T06:58:08.828Z,7.83
2019-01-30T07:03:16.492Z,8.42
2019-01-30T07:08:25.484Z,8.76
2019-01-30T07:13:33.166Z,8.24
2019-01-30T07:18:41.846Z,8.96
2019-01-30T07:23:49.473Z,8.69
2019-01-30T07:28:57.361Z,9.06
2019-01-30T07:34:04.962Z,9.02
2019-01-30T07:39:12.710Z,8.93
2019-01-30T07:44:20.334Z,8.70
2019-01-30T07:49:28.065Z,9.07
2019-01-30T07:54:36.769Z,9.18
2019-01-30T07:59:44.412Z,9.10
2019-01-30T08:04:52.277Z,8.70
2019-01-30T08:09:59.997Z,8.86
2019-01-30T08:15:08.606Z,8.91
2019-01-30T08:20:16.489Z,8.93
2019-01-30T08:25:24.475Z,8.19
2019-01-30T08:30:32.031Z,8.32
2019-01-30T08:35:39.517Z,8.88
2019-01-30T08:40:47.942Z,8.56
2019-01-30T08:45:55.521Z,8.26
2019-01-30T08:51:04.357Z,8.27
2019-01-30T08:56:11.998Z,8.19
2019-01-30T09:01:19.614Z,8.00
2019-01-30T09:06:27.408Z,8.08
2019-01-30T09:11:35.665Z,8.09
2019-01-30T09:16:43.297Z,7.63
2019-01-30T09:21:51.029Z,7.90
2019-01-30T09:26:59.073Z,8.32
2019-01-30T09:32:06.710Z,8.35
2019-01-30T09:37:14.937Z,8.51
2019-01-30T09:42:22.617Z,8.45
2019-01-30T09:47:30.304Z,8.14
2019-01-30T09:52:37.973Z,8.36
2019-01-30T09:57:45.744Z,8.52
2019-01-30T10:02:53.404Z,8.55
2019-01-30T10:08:01.114Z,8.46
2019-01-30T10:13:08.826Z,8.88
2019-01-30T10:18:16.608Z,8.59
2019-01-30T10:23:24.572Z,9.47
2019-01-30T10:28:33.336Z,8.75
2019-01-30T10:33:46.690Z,9.09
2019-01-30T10:38:48.303Z,9.41
2019-01-30T10:43:55.977Z,8.99
2019-01-30T10:49:03.613Z,9.37
2019-01-30T10:54:11.664Z,9.21
2019-01-30T10:59:19.725Z,8.71
2019-01-30T11:04:28.136Z,8.59
2019-01-30T11:09:35.858Z,8.94
2019-01-30T11:14:43.623Z,9.06
2019-01-30T11:19:52.284Z,8.56
2019-01-30T11:24:59.918Z,8.25
2019-01-30T11:30:08.045Z,8.39
2019-01-30T11:35:15.635Z,8.19
2019-01-30T11:40:23.369Z,7.98
2019-01-30T11:45:30.982Z,8.23
2019-01-30T11:50:38.637Z,7.96
2019-01-30T11:55:46.385Z,7.70
2019-01-30T12:00:54.634Z,7.84
2019-01-30T12:06:02.339Z,7.61
2019-01-30T12:11:09.981Z,7.87
2019-01-30T12:16:18.685Z,7.82
2019-01-30T12:21:28.658Z,7.68
2019-01-30T12:26:36.276Z,7.14
2019-01-30T12:31:45.089Z,7.09
2019-01-30T12:36:52.977Z,7.31
2019-01-30T12:42:01.750Z,7.36
2019-01-30T12:47:19.532Z,6.81
2019-01-30T12:52:17.093Z,6.57
2019-01-30T12:57:25.895Z,6.81
2019-01-30T13:02:33.629Z,6.84
2019-01-30T13:07:41.729Z,7.04
2019-01-30T13:12:50.729Z,6.69
2019-01-30T13:17:58.581Z,7.03
2019-01-30T13:23:06.338Z,6.97
2019-01-30T13:28:13.757Z,6.76
2019-01-30T13:33:22.835Z,7.08
2019-01-30T13:38:30.693Z,7.24
2019-01-30T13:43:38.508Z,6.70
2019-01-30T13:48:46.286Z,6.45
2019-01-30T13:53:53.982Z,6.71
2019-01-30T13:59:01.745Z,6.68
2019-01-30T14:04:09.369Z,6.85
2019-01-30T14:09:18.067Z,6.86
2019-01-30T14:14:25.650Z,6.70
2019-01-30T14:19:33.321Z,6.62
2019-01-30T14:24:40.964Z,7.00
2019-01-30T14:29:57.949Z,6.72
2019-01-30T14:34:56.844Z,6.71
2019-01-30T14:40:04.656Z,6.53
2019-01-30T14:45:13.412Z,6.50
2019-01-30T14:50:23.374Z,6.65
2019-01-30T14:55:33.000Z,6.57
2019-01-30T15:00:41.767Z,6.32
2019-01-30T15:05:50.493Z,7.06
2019-01-30T15:10:58.382Z,6.38
2019-01-30T15:16:06.023Z,7.42
2019-01-30T15:21:14.292Z,6.78
2019-01-30T15:26:22.621Z,6.82
2019-01-30T15:31:30.953Z,6.68
2019-01-30T15:36:38.542Z,6.67
2019-01-30T15:41:46.190Z,6.84
2019-01-30T15:46:54.913Z,6.88
2019-01-30T15:52:02.633Z,7.03
2019-01-30T15:57:10.273Z,6.98
2019-01-30T16:02:18.059Z,7.24
2019-01-30T16:07:25.701Z,7.74
2019-01-30T16:12:34.716Z,8.07
2019-01-30T16:17:42.477Z,8.69
2019-01-30T16:22:50.266Z,9.40
2019-01-30T16:27:57.838Z,9.39
2019-01-30T16:33:05.441Z,9.00
2019-01-30T16:38:13.104Z,9.36
2019-01-30T16:43:20.710Z,8.77
2019-01-30T16:48:30.898Z,10.64
2019-01-30T16:53:35.633Z,11.66
2019-01-30T16:58:43.294Z,10.41
2019-01-30T17:03:50.927Z,13.90
2019-01-30T17:08:58.718Z,9.83
2019-01-30T17:14:07.649Z,9.65
2019-01-30T17:19:15.356Z,9.89
2019-01-30T17:24:23.028Z,10.01
2019-01-30T17:29:32.233Z,9.98
2019-01-30T17:34:39.825Z,10.04
2019-01-30T17:39:47.643Z,10.67
2019-01-30T17:44:55.381Z,10.24
2019-01-30T17:50:02.989Z,10.22
2019-01-30T17:55:10.638Z,10.67
2019-01-30T18:00:18.308Z,10.94
2019-01-30T18:05:25.946Z,11.12
2019-01-30T18:10:33.672Z,11.55
2019-01-30T18:15:41.384Z,12.24
2019-01-30T18:20:56.652Z,12.26
2019-01-30T18:25:54.281Z,12.78
2019-01-30T18:31:02.061Z,13.37
2019-01-30T18:36:09.664Z,13.45
2019-01-30T18:41:17.386Z,13.67
2019-01-30T18:46:25.131Z,14.07
2019-01-30T18:51:32.990Z,13.98
2019-01-30T18:56:40.753Z,13.92
2019-01-30T19:01:48.614Z,14.54
2019-01-30T19:06:56.277Z,14.73
2019-01-30T19:12:04.018Z,14.80
2019-01-30T19:17:11.688Z,14.54
2019-01-30T19:22:19.303Z,14.44
2019-01-30T19:27:27.057Z,15.01
2019-01-30T19:32:34.946Z,14.59
2019-01-30T19:37:42.947Z,14.58
2019-01-30T19:42:51.041Z,14.18
2019-01-30T19:47:58.968Z,14.41
2019-01-30T19:53:07.122Z,13.90
2019-01-30T19:58:14.918Z,13.95
2019-01-30T20:03:23.141Z,13.67
2019-01-30T20:08:31.035Z,13.96
2019-01-30T20:13:38.931Z,13.95
2019-01-30T20:18:46.701Z,13.98
2019-01-30T20:23:54.694Z,13.31
2019-01-30T20:29:03.285Z,13.97
2019-01-30T20:34:14.858Z,13.79
2019-01-30T20:39:12.473Z,14.26
2019-01-30T20:44:20.161Z,13.86
2019-01-30T20:49:27.812Z,13.92
2019-01-30T20:54:35.534Z,13.94
2019-01-30T20:59:43.387Z,14.19
2019-01-30T21:04:51.373Z,14.27
2019-01-30T21:09:59.102Z,14.30
2019-01-30T21:15:07.170Z,14.75
2019-01-30T21:20:14.751Z,21.79
2019-01-30T21:25:22.545Z,14.82
2019-01-30T21:30:30.277Z,15.01
2019-01-30T21:35:38.040Z,14.63
2019-01-30T21:40:45.718Z,15.21
2019-01-30T21:45:53.407Z,14.97
2019-01-30T21:51:01.206Z,16.08
2019-01-30T21:56:09.950Z,16.03
2019-01-30T22:01:16.426Z,16.18
2019-01-30T22:06:24.504Z,16.65
2019-01-30T22:11:32.573Z,15.34
2019-01-30T22:16:40.213Z,15.84
2019-01-30T22:21:47.873Z,24.98
2019-01-30T22:26:55.605Z,17.16
2019-01-30T22:32:03.249Z,15.82
2019-01-30T22:37:11.802Z,16.68
2019-01-30T22:42:19.383Z,17.25
2019-01-30T22:47:27.035Z,16.94
2019-01-30T22:52:34.783Z,17.28
2019-01-30T22:57:45.505Z,18.42
2019-01-30T23:02:43.100Z,18.71
2019-01-30T23:07:50.732Z,19.77
2019-01-30T23:12:58.418Z,20.24
2019-01-30T23:18:06.059Z,19.47
2019-01-30T23:23:15.279Z,19.74
2019-01-30T23:28:23.111Z,21.14
2019-01-30T23:33:31.211Z,19.81
2019-01-30T23:38:39.225Z,19.41
2019-01-30T23:43:46.861Z,19.92
2019-01-30T23:48:54.600Z,21.07
2019-01-30T23:54:02.323Z,19.26
2019-01-30T23:59:10.089Z,19.89
